Time;durP1;ratioP1;P1;durP2;ratioP2;P2;SDS_P1;SDS_P2;PMS_P1;PMS_P2;Temp;Humidity;BMP_temperature;BMP_pressure;BME280_temperature;BME280_humidity;BME280_pressure;Samples;Min_cycle;Max_cycle;Signal;HPM_P1;HPM_P2
2021/05/11 00:01:35;;;;;;;3.58;1.17;;;16.60;63.50;;;;;;5053643;28;20025;-35
2021/05/11 00:04:01;;;;;;;2.78;1.50;;;16.70;63.40;;;;;;5052202;28;20021;-35
2021/05/11 00:06:27;;;;;;;2.72;1.90;;;16.60;63.60;;;;;;5053539;28;20025;-35
2021/05/11 00:08:52;;;;;;;1.88;1.58;;;16.70;63.50;;;;;;5053511;28;20498;-35
2021/05/11 00:11:18;;;;;;;3.90;1.33;;;16.50;63.90;;;;;;5052138;28;20032;-35
2021/05/11 00:13:44;;;;;;;4.25;2.03;;;16.40;64.50;;;;;;5053824;28;20025;-35
2021/05/11 00:16:10;;;;;;;3.08;1.88;;;16.40;64.40;;;;;;5053932;28;20048;-35
2021/05/11 00:18:36;;;;;;;2.50;2.00;;;16.40;64.60;;;;;;5053692;28;20096;-34
2021/05/11 00:21:02;;;;;;;2.58;1.65;;;16.50;64.50;;;;;;5053639;28;20029;-34
2021/05/11 00:23:27;;;;;;;3.00;1.52;;;16.40;65.00;;;;;;5053607;28;20381;-34
2021/05/11 00:25:54;;;;;;;3.15;1.98;;;16.30;66.10;;;;;;5053528;28;20032;-37
2021/05/11 00:28:19;;;;;;;3.33;1.77;;;16.30;67.20;;;;;;5053430;28;20473;-36
2021/05/11 00:30:45;;;;;;;4.22;1.80;;;16.20;67.90;;;;;;5053342;28;20075;-35
2021/05/11 00:33:10;;;;;;;2.88;1.90;;;16.20;68.60;;;;;;5051872;28;20029;-35
2021/05/11 00:35:36;;;;;;;5.30;2.13;;;16.30;68.00;;;;;;5051806;28;20029;-35
2021/05/11 00:38:02;;;;;;;8.85;1.70;;;16.30;68.40;;;;;;5053358;28;20473;-35
2021/05/11 00:40:27;;;;;;;4.35;2.50;;;16.20;69.20;;;;;;5053347;28;20039;-35
2021/05/11 00:42:53;;;;;;;3.58;2.05;;;16.30;70.50;;;;;;5053077;28;20031;-34
2021/05/11 00:45:19;;;;;;;9.52;2.17;;;16.10;71.00;;;;;;5053092;28;20033;-35
2021/05/11 00:47:44;;;;;;;7.15;1.80;;;16.20;71.40;;;;;;5052831;28;20064;-35
2021/05/11 00:50:11;;;;;;;2.13;1.83;;;16.00;73.40;;;;;;5052783;28;20447;-36
2021/05/11 00:52:36;;;;;;;2.40;1.80;;;16.00;74.60;;;;;;5052869;28;20021;-35
2021/05/11 00:55:03;;;;;;;4.55;2.63;;;15.80;76.20;;;;;;5053204;28;20381;-34
2021/05/11 00:57:31;;;;;;;3.60;2.67;;;15.70;77.30;;;;;;5052950;28;20074;-35
2021/05/11 00:59:59;;;;;;;3.30;2.35;;;15.80;77.90;;;;;;5053175;28;20025;-35
2021/05/11 01:02:24;;;;;;;4.47;2.13;;;15.70;78.50;;;;;;5053025;28;20025;-35
2021/05/11 01:04:50;;;;;;;3.58;2.05;;;15.50;79.60;;;;;;5053002;28;20131;-35
2021/05/11 01:07:16;;;;;;;3.22;1.98;;;15.60;80.00;;;;;;5052775;28;20033;-35
2021/05/11 01:09:41;;;;;;;3.75;2.15;;;15.50;80.60;;;;;;5052668;28;20116;-35
2021/05/11 01:12:07;;;;;;;3.83;1.88;;;15.30;81.60;;;;;;5052719;28;20359;-35
2021/05/11 01:14:33;;;;;;;2.58;2.35;;;15.30;82.80;;;;;;5052736;28;20025;-35
2021/05/11 01:17:00;;;;;;;5.95;3.00;;;15.40;82.10;;;;;;5053112;28;20024;-35
2021/05/11 01:19:39;;;;;;;4.85;2.67;;;15.20;82.90;;;;;;5051455;28;20079;-35
2021/05/11 01:24:49;;;;;;;4.40;2.83;;;15.20;83.90;;;;;;5052936;28;20033;-35
2021/05/11 02:23:03;;;;;;;5.57;4.10;;;14.50;89.60;;;;;;5055689;28;20032;-35
2021/05/11 02:25:29;;;;;;;10.00;4.63;;;14.60;88.80;;;;;;5056082;28;20029;-35
2021/05/11 02:27:55;;;;;;;6.90;5.72;;;14.60;89.30;;;;;;5053953;28;20025;-35
2021/05/11 02:30:21;;;;;;;7.68;4.80;;;14.80;88.30;;;;;;5055252;28;20044;-35
2021/05/11 02:32:47;;;;;;;8.23;5.40;;;14.70;88.40;;;;;;5055255;28;20027;-35
2021/05/11 02:35:15;;;;;;;6.93;4.57;;;14.70;88.70;;;;;;5055094;28;20021;-35
2021/05/11 02:37:41;;;;;;;7.50;5.10;;;14.70;88.90;;;;;;5055166;28;20095;-35
2021/05/11 02:40:09;;;;;;;6.97;5.18;;;14.60;89.20;;;;;;5054902;28;20100;-35
2021/05/11 02:42:36;;;;;;;5.97;4.97;;;14.80;88.10;;;;;;5055298;28;20438;-35
2021/05/11 02:45:04;;;;;;;6.13;5.18;;;14.60;89.00;;;;;;5054992;28;20041;-35
2021/05/11 02:47:29;;;;;;;6.80;5.97;;;14.70;88.90;;;;;;5054021;28;20500;-35
2021/05/11 02:49:55;;;;;;;6.72;5.10;;;14.60;89.70;;;;;;5054621;28;20044;-34
2021/05/11 02:52:21;;;;;;;7.05;6.15;;;14.50;90.00;;;;;;5054882;28;20025;-34
2021/05/11 02:54:46;;;;;;;6.65;5.43;;;14.50;90.30;;;;;;5055024;28;20025;-34
2021/05/11 02:57:12;;;;;;;10.18;5.75;;;14.40;90.20;;;;;;5054736;28;20028;-34
2021/05/11 02:59:39;;;;;;;7.95;5.75;;;14.30;90.20;;;;;;5055187;28;20036;-34
2021/05/11 03:02:05;;;;;;;8.85;5.75;;;14.30;90.40;;;;;;5054892;28;20033;-34
2021/05/11 03:04:31;;;;;;;7.20;5.70;;;14.40;91.00;;;;;;5054927;28;20036;-34
2021/05/11 03:06:57;;;;;;;8.35;5.68;;;14.40;91.10;;;;;;5054809;28;20037;-34
2021/05/11 03:09:27;;;;;;;10.15;6.07;;;14.40;90.70;;;;;;5054668;28;20032;-34
2021/05/11 03:11:54;;;;;;;8.32;5.25;;;14.40;90.60;;;;;;5054615;28;20473;-35
2021/05/11 03:14:20;;;;;;;10.27;6.00;;;14.50;90.30;;;;;;5054412;28;20017;-35
2021/05/11 03:16:46;;;;;;;7.25;5.90;;;14.50;90.50;;;;;;5054656;28;20462;-34
2021/05/11 03:19:12;;;;;;;11.45;6.47;;;14.30;90.50;;;;;;5053127;28;20044;-34
2021/05/11 03:21:38;;;;;;;7.90;6.45;;;14.40;90.90;;;;;;5054528;28;20500;-35
2021/05/11 03:24:05;;;;;;;6.93;6.22;;;14.40;90.70;;;;;;5054094;28;20048;-34
2021/05/11 03:26:30;;;;;;;6.65;5.18;;;14.60;90.10;;;;;;5054101;28;20071;-34
2021/05/11 03:28:56;;;;;;;6.10;5.30;;;14.50;90.40;;;;;;5054150;28;20025;-34
2021/05/11 03:31:21;;;;;;;9.10;6.10;;;14.30;90.70;;;;;;5054151;28;20055;-34
2021/05/11 03:33:47;;;;;;;7.00;4.97;;;14.40;90.70;;;;;;5054292;28;20055;-34
2021/05/11 03:36:12;;;;;;;14.15;6.97;;;14.40;90.50;;;;;;5054513;28;20017;-34
2021/05/11 03:38:39;;;;;;;9.25;6.72;;;14.40;90.60;;;;;;5054071;28;20027;-34
2021/05/11 03:41:05;;;;;;;7.13;6.15;;;14.60;90.50;;;;;;5054214;28;20025;-34
2021/05/11 03:43:44;;;;;;;10.90;7.05;;;14.60;90.30;;;;;;5053926;28;20544;-35
2021/05/11 03:46:10;;;;;;;7.95;6.25;;;14.50;90.50;;;;;;5053930;28;20021;-36
2021/05/11 03:48:36;;;;;;;7.05;6.35;;;14.60;90.10;;;;;;5053799;28;20023;-36
2021/05/11 03:51:05;;;;;;;8.43;6.82;;;14.60;90.50;;;;;;5053715;28;20060;-36
2021/05/11 03:53:35;;;;;;;7.32;5.75;;;14.50;90.70;;;;;;5053959;28;20029;-34
2021/05/11 03:56:01;;;;;;;8.32;5.65;;;14.50;90.70;;;;;;5052230;28;20423;-35
2021/05/11 03:58:27;;;;;;;8.50;6.60;;;14.30;90.90;;;;;;5053591;28;20103;-35
2021/05/11 04:00:53;;;;;;;7.18;5.65;;;14.40;91.20;;;;;;5053429;28;20036;-35
2021/05/11 04:03:19;;;;;;;10.57;6.68;;;14.50;90.40;;;;;;5052261;28;20021;-35
2021/05/11 04:05:47;;;;;;;8.35;6.15;;;14.50;90.50;;;;;;5052202;28;20092;-35
2021/05/11 04:16:29;;;;;;;8.55;6.97;;;14.70;90.40;;;;;;5053239;28;20047;-36
2021/05/11 04:18:55;;;;;;;8.90;7.32;;;14.60;90.60;;;;;;5053452;28;20366;-36
2021/05/11 04:21:22;;;;;;;9.93;6.80;;;14.50;90.60;;;;;;5053304;28;20027;-35
2021/05/11 04:23:51;;;;;;;12.48;6.80;;;14.60;90.80;;;;;;5053217;28;20100;-35
2021/05/11 04:26:19;;;;;;;11.20;7.05;;;14.50;90.60;;;;;;5053311;28;20108;-36
2021/05/11 04:28:46;;;;;;;7.72;6.82;;;14.40;90.70;;;;;;5051979;28;20028;-36
2021/05/11 04:31:12;;;;;;;11.40;7.22;;;14.40;91.30;;;;;;5052982;28;20017;-36
2021/05/11 04:33:38;;;;;;;10.23;6.20;;;14.40;91.40;;;;;;5053176;28;20024;-35
2021/05/11 04:36:05;;;;;;;7.57;6.47;;;14.30;91.30;;;;;;5053007;28;20036;-35
2021/05/11 04:38:30;;;;;;;8.38;6.68;;;14.40;91.20;;;;;;5053139;28;20033;-36
2021/05/11 04:40:56;;;;;;;7.05;5.97;;;14.40;90.80;;;;;;5053114;28;20474;-35
2021/05/11 04:43:24;;;;;;;11.52;6.38;;;14.40;90.80;;;;;;5052963;28;20057;-36
2021/05/11 04:46:01;;;;;;;10.80;6.05;;;14.40;90.90;;;;;;5053092;28;20437;-35
2021/05/11 04:48:27;;;;;;;6.47;5.82;;;14.30;91.10;;;;;;5053477;28;20025;-35
2021/05/11 04:50:52;;;;;;;11.90;6.95;;;14.10;91.60;;;;;;5052557;28;20052;-34
2021/05/11 04:53:19;;;;;;;10.13;6.78;;;14.00;92.20;;;;;;5052742;28;20101;-35
2021/05/11 04:55:45;;;;;;;9.07;7.18;;;14.00;92.00;;;;;;5052863;28;20021;-35
2021/05/11 04:58:11;;;;;;;9.57;7.63;;;14.20;91.70;;;;;;5052725;28;20029;-36
2021/05/11 05:00:37;;;;;;;11.32;7.32;;;14.20;91.30;;;;;;5052681;28;20026;-35
2021/05/11 05:03:06;;;;;;;10.68;7.65;;;14.30;91.10;;;;;;5053035;28;20362;-36
2021/05/11 05:05:31;;;;;;;8.68;6.97;;;14.00;91.40;;;;;;5052823;28;20033;-35
2021/05/11 05:07:57;;;;;;;10.27;7.70;;;14.00;92.10;;;;;;5052547;28;20036;-34
2021/05/11 05:10:23;;;;;;;9.25;7.50;;;14.10;91.80;;;;;;5052314;28;20025;-35
2021/05/11 05:12:48;;;;;;;10.25;7.57;;;14.20;91.90;;;;;;5052435;28;20017;-35
2021/05/11 05:15:15;;;;;;;9.40;7.20;;;14.30;90.80;;;;;;5052510;28;20025;-35
2021/05/11 05:17:41;;;;;;;9.00;7.13;;;14.30;90.70;;;;;;5052805;28;20029;-36
2021/05/11 05:20:07;;;;;;;8.63;6.93;;;14.20;91.30;;;;;;5052430;28;20056;-34
2021/05/11 05:22:33;;;;;;;11.60;8.07;;;14.20;91.80;;;;;;5052585;28;20026;-36
2021/05/11 05:25:00;;;;;;;9.77;8.10;;;14.20;92.00;;;;;;5052740;28;20413;-36
2021/05/11 05:27:37;;;;;;;11.98;7.82;;;14.30;91.60;;;;;;5052233;28;20037;-34
2021/05/11 05:30:06;;;;;;;14.18;8.65;;;14.40;90.90;;;;;;5052262;28;20033;-34
2021/05/11 05:32:32;;;;;;;9.70;8.70;;;14.30;91.00;;;;;;5053936;28;20466;-35
2021/05/11 05:34:58;;;;;;;11.48;9.80;;;14.40;91.20;;;;;;5056219;28;20104;-35
2021/05/11 05:37:23;;;;;;;15.65;10.63;;;14.40;91.20;;;;;;5055982;28;20048;-35
2021/05/11 05:39:53;;;;;;;14.25;10.60;;;14.50;90.80;;;;;;5056074;28;20047;-35
2021/05/11 05:42:19;;;;;;;13.45;10.95;;;14.60;90.50;;;;;;5056481;28;20473;-35
2021/05/11 05:44:45;;;;;;;12.90;10.15;;;14.70;90.20;;;;;;5055912;28;20134;-34
2021/05/11 05:47:11;;;;;;;10.30;8.90;;;14.60;90.20;;;;;;5055794;28;20029;-36
2021/05/11 05:49:44;;;;;;;19.05;12.43;;;14.60;90.50;;;;;;5055869;28;20122;-34
2021/05/11 05:52:15;;;;;;;17.83;10.05;;;14.70;89.90;;;;;;5055974;28;20096;-34
2021/05/11 05:54:41;;;;;;;12.93;10.75;;;14.80;89.40;;;;;;5056010;28;20399;-34
2021/05/11 05:57:07;;;;;;;12.50;9.95;;;15.00;89.40;;;;;;5055405;28;20025;-36
2021/05/11 05:59:35;;;;;;;13.82;9.25;;;15.00;88.70;;;;;;5053951;28;20086;-34
2021/05/11 06:02:00;;;;;;;14.63;10.68;;;15.00;88.60;;;;;;5055628;28;20057;-35
2021/05/11 06:04:27;;;;;;;12.82;9.48;;;15.20;88.00;;;;;;5055582;28;20456;-35
2021/05/11 06:06:52;;;;;;;16.25;10.27;;;15.00;88.50;;;;;;5055876;28;20027;-35
2021/05/11 06:09:21;;;;;;;17.30;10.30;;;15.20;88.00;;;;;;5055565;28;20021;-35
2021/05/11 06:11:58;;;;;;;15.65;10.68;;;15.30;87.00;;;;;;5055384;28;20028;-35
2021/05/11 06:14:50;;;;;;;16.15;10.40;;;15.60;86.20;;;;;;5055742;28;20067;-34
2021/05/11 06:17:19;;;;;;;11.80;8.95;;;15.50;86.60;;;;;;5055709;28;20025;-34
2021/05/11 06:19:52;;;;;;;15.85;10.38;;;15.60;86.30;;;;;;5055171;28;20032;-35
2021/05/11 06:22:18;;;;;;;18.83;10.88;;;15.30;87.00;;;;;;5055531;28;20114;-35
2021/05/11 06:24:43;;;;;;;14.30;11.23;;;15.20;86.40;;;;;;5055543;28;20029;-35
2021/05/11 06:27:11;;;;;;;16.33;11.90;;;15.20;86.60;;;;;;5055513;28;20044;-36
2021/05/11 06:29:43;;;;;;;14.63;11.35;;;15.30;86.50;;;;;;5053932;28;20040;-35
2021/05/11 06:32:10;;;;;;;17.95;11.90;;;15.30;86.40;;;;;;5055622;28;20377;-36
2021/05/11 06:34:37;;;;;;;22.23;12.38;;;15.40;86.60;;;;;;5055149;28;20021;-35
2021/05/11 06:37:03;;;;;;;15.02;11.90;;;15.50;85.80;;;;;;5055592;28;20036;-35
2021/05/11 06:39:29;;;;;;;16.85;12.57;;;15.50;85.70;;;;;;5055020;28;20025;-35
2021/05/11 06:41:57;;;;;;;18.05;12.95;;;15.70;85.80;;;;;;5055181;28;20017;-35
2021/05/11 06:49:34;;;;;;;19.55;14.52;;;15.70;85.20;;;;;;5054968;28;20099;-35
2021/05/11 06:54:44;;;;;;;22.13;15.55;;;15.70;85.20;;;;;;5054893;28;20381;-35
2021/05/11 06:57:09;;;;;;;18.42;14.77;;;15.70;84.50;;;;;;5054765;28;20099;-36
2021/05/11 06:59:35;;;;;;;17.98;12.43;;;15.80;84.40;;;;;;5055046;28;20024;-35
2021/05/11 07:02:02;;;;;;;16.10;11.52;;;16.00;83.40;;;;;;5053356;28;20029;-35
2021/05/11 07:04:28;;;;;;;18.20;12.68;;;15.90;82.50;;;;;;5054383;28;20021;-35
2021/05/11 07:06:54;;;;;;;14.93;12.35;;;16.00;82.60;;;;;;5054516;28;20021;-35
2021/05/11 07:09:51;;;;;;;15.07;10.38;;;16.10;82.60;;;;;;5054258;28;20100;-36
2021/05/11 07:15:01;;;;;;;13.43;10.52;;;16.30;81.20;;;;;;5054703;28;20555;-35
2021/05/11 07:17:28;;;;;;;15.63;11.85;;;16.20;82.30;;;;;;5054326;28;20017;-35
2021/05/11 07:19:54;;;;;;;14.00;10.93;;;16.40;81.10;;;;;;5054372;28;20478;-35
2021/05/11 07:22:20;;;;;;;16.67;10.52;;;16.50;80.20;;;;;;5053827;28;20021;-35
2021/05/11 07:24:49;;;;;;;14.95;11.43;;;16.20;81.30;;;;;;5052409;28;20025;-35
2021/05/11 07:27:32;;;;;;;19.48;11.75;;;16.20;81.70;;;;;;5053863;28;20307;-35
2021/05/11 07:30:14;;;;;;;18.67;11.75;;;16.30;81.70;;;;;;5053997;28;20118;-35
2021/05/11 07:32:41;;;;;;;15.20;11.73;;;16.10;82.10;;;;;;5052457;28;20033;-36
2021/05/11 07:35:07;;;;;;;19.00;13.63;;;15.80;82.30;;;;;;5054023;28;20025;-35
2021/05/11 07:37:33;;;;;;;22.73;17.67;;;16.30;81.60;;;;;;5053491;28;20021;-35
2021/05/11 07:40:00;;;;;;;24.05;17.27;;;16.30;81.10;;;;;;5054724;28;20036;-36
2021/05/11 07:42:26;;;;;;;20.70;17.10;;;16.50;80.60;;;;;;5054541;28;20029;-34
2021/05/11 07:44:56;;;;;;;25.92;20.20;;;16.90;80.10;;;;;;5054704;28;20025;-35
2021/05/11 07:47:36;;;;;;;22.20;18.17;;;16.80;78.70;;;;;;5053811;28;20032;-36
2021/05/11 08:04:08;;;;;;;21.15;16.23;;;17.10;75.50;;;;;;5053189;28;20035;-36
2021/05/11 08:17:26;;;;;;;14.68;12.25;;;18.20;69.50;;;;;;5053693;28;20024;-35
2021/05/11 08:20:03;;;;;;;15.32;11.63;;;18.50;69.00;;;;;;5052690;28;20040;-36
2021/05/11 08:28:08;;;;;;;15.23;12.20;;;18.30;68.40;;;;;;5052400;28;20089;-34
2021/05/11 08:30:34;;;;;;;15.55;11.23;;;18.20;70.10;;;;;;5052709;28;20021;-34
2021/05/11 08:33:00;;;;;;;14.05;12.55;;;18.80;67.70;;;;;;5052588;28;20070;-35
2021/05/11 08:35:26;;;;;;;17.90;12.93;;;19.30;66.70;;;;;;5052428;28;20446;-36
2021/05/11 08:37:51;;;;;;;15.77;11.82;;;19.40;64.60;;;;;;5052527;28;20024;-35
2021/05/11 08:40:18;;;;;;;15.43;12.98;;;19.30;64.80;;;;;;5050293;28;20465;-36
2021/05/11 08:42:43;;;;;;;17.33;12.90;;;19.50;65.70;;;;;;5052075;28;20035;-36
2021/05/11 08:45:11;;;;;;;14.80;12.93;;;19.50;64.90;;;;;;5051767;28;20099;-36
2021/05/11 08:47:49;;;;;;;17.00;12.18;;;19.10;65.40;;;;;;5052489;28;20037;-35
2021/05/11 08:50:23;;;;;;;16.42;13.98;;;18.80;66.00;;;;;;5050476;28;20052;-36
2021/05/11 08:53:14;;;;;;;13.15;11.45;;;18.80;66.30;;;;;;5051908;28;20021;-45
2021/05/11 09:04:45;;;;;;;11.70;10.35;;;18.20;65.20;;;;;;5052688;28;20044;-36
2021/05/11 09:24:35;;;;;;;;;;;19.20;61.40;;;;;;5056856;28;20075;-35
2021/05/11 09:27:21;;;;;;;9.10;8.20;;;18.90;62.40;;;;;;5055756;28;19913;-34
2021/05/11 09:52:07;;;;;;;6.88;5.70;;;19.20;64.10;;;;;;5055871;28;20098;-35
2021/05/11 10:48:29;;;;;;;5.38;3.85;;;17.40;69.20;;;;;;5054587;28;20533;-34
2021/05/11 10:51:00;;;;;;;5.07;4.45;;;17.40;70.40;;;;;;5054614;28;20094;-35
2021/05/11 10:53:58;;;;;;;9.32;5.72;;;17.40;71.00;;;;;;5055109;28;20033;-35
2021/05/11 10:56:26;;;;;;;9.77;5.88;;;17.30;71.20;;;;;;5054644;28;20070;-35
2021/05/11 11:01:55;;;;;;;9.27;7.43;;;17.10;73.70;;;;;;5054926;28;20052;-35
2021/05/11 11:04:23;;;;;;;11.38;7.30;;;17.00;75.10;;;;;;5055185;28;20029;-36
2021/05/11 11:07:00;;;;;;;9.52;7.15;;;16.90;76.60;;;;;;5054526;28;20017;-34
2021/05/11 11:09:34;;;;;;;8.82;7.93;;;16.80;76.10;;;;;;5053887;28;20029;-36
2021/05/11 11:12:03;;;;;;;13.65;10.07;;;16.70;77.20;;;;;;5054707;28;20036;-35
2021/05/11 11:14:40;;;;;;;10.65;9.55;;;16.60;79.40;;;;;;5054440;28;20025;-36
2021/05/11 11:17:12;;;;;;;10.63;9.50;;;16.30;80.70;;;;;;5052728;28;20017;-35
2021/05/11 11:19:38;;;;;;;11.75;10.48;;;16.00;81.50;;;;;;5054412;28;20017;-34
2021/05/11 11:24:57;;;;;;;14.38;10.48;;;15.40;84.70;;;;;;5054582;28;20036;-36
2021/05/11 11:27:27;;;;;;;14.18;10.45;;;15.20;85.20;;;;;;5054228;28;20476;-35
2021/05/11 11:30:03;;;;;;;13.02;10.52;;;15.20;85.60;;;;;;5051672;28;20029;-36
2021/05/11 11:32:30;;;;;;;15.93;10.18;;;15.10;85.40;;;;;;5053743;28;20021;-35
2021/05/11 11:35:00;;;;;;;14.88;11.18;;;15.20;85.20;;;;;;5053458;28;20079;-35
2021/05/11 11:37:29;;;;;;;13.57;10.87;;;15.30;85.70;;;;;;5036730;28;20024;-35
2021/05/11 11:40:07;;;;;;;12.43;10.63;;;15.30;85.60;;;;;;5036321;28;20259;-35
2021/05/11 11:42:40;;;;;;;11.30;10.15;;;15.40;84.50;;;;;;5037412;28;20032;-35
2021/05/11 11:45:21;;;;;;;10.70;8.73;;;15.40;85.00;;;;;;5054116;28;20060;-36
2021/05/11 11:48:00;;;;;;;14.35;10.15;;;15.40;84.00;;;;;;5054035;28;20039;-36
2021/05/11 11:50:26;;;;;;;20.75;12.85;;;15.50;84.90;;;;;;5053334;28;20075;-35
2021/05/11 11:55:52;;;;;;;12.60;9.63;;;15.50;85.40;;;;;;5053850;28;20120;-36
2021/05/11 11:58:23;;;;;;;10.98;9.50;;;15.50;84.20;;;;;;5054388;28;20469;-36
2021/05/11 12:00:50;;;;;;;12.20;8.80;;;15.50;84.60;;;;;;5053673;28;20025;-35
2021/05/11 12:03:17;;;;;;;11.82;9.27;;;15.50;83.60;;;;;;5052122;28;20036;-35
2021/05/11 12:05:49;;;;;;;9.88;8.13;;;15.60;84.30;;;;;;5053073;28;20123;-36
2021/05/11 12:11:01;;;;;;;9.02;7.70;;;16.00;82.90;;;;;;5053367;28;20453;-36
2021/05/11 12:13:29;;;;;;;8.75;6.32;;;16.10;80.90;;;;;;5053300;28;20070;-36
2021/05/11 12:16:17;;;;;;;6.25;5.18;;;16.20;80.60;;;;;;5053429;28;20017;-36
2021/05/11 12:21:29;;;;;;;5.25;4.75;;;16.10;79.20;;;;;;5053454;28;20056;-36
2021/05/11 12:24:09;;;;;;;6.65;4.20;;;16.00;78.60;;;;;;5053178;28;20017;-35
2021/05/11 12:26:36;;;;;;;4.97;4.47;;;16.00;78.60;;;;;;5053572;28;20491;-37
2021/05/11 12:29:18;;;;;;;6.47;5.15;;;16.00;78.90;;;;;;5053417;28;20032;-36
2021/05/11 12:31:47;;;;;;;5.60;4.70;;;15.90;80.70;;;;;;5053416;28;20064;-36
2021/05/11 12:34:23;;;;;;;9.60;4.82;;;16.00;79.80;;;;;;5052974;28;20381;-36
2021/05/11 12:36:55;;;;;;;9.25;5.78;;;16.10;79.90;;;;;;5053487;28;20036;-37
2021/05/11 12:41:52;;;;;;;8.52;5.32;;;16.60;79.40;;;;;;5052763;28;20481;-35
2021/05/11 12:44:29;;;;;;;5.63;5.00;;;16.50;78.40;;;;;;5053310;28;20101;-36
2021/05/11 12:47:02;;;;;;;7.25;5.97;;;16.70;77.70;;;;;;5052798;28;20023;-35
2021/05/11 12:49:29;;;;;;;6.85;5.75;;;16.60;78.40;;;;;;5052759;28;20049;-35
2021/05/11 12:51:56;;;;;;;7.70;6.95;;;16.70;77.50;;;;;;5053582;28;20167;-36
2021/05/11 12:54:28;;;;;;;7.20;6.15;;;16.50;78.80;;;;;;5053247;28;20023;-36
2021/05/11 12:59:56;;;;;;;7.72;5.80;;;16.10;78.30;;;;;;5053140;28;20037;-35
2021/05/11 13:16:52;;;;;;;6.35;5.60;;;16.80;78.20;;;;;;5052879;28;20495;-35
2021/05/11 13:22:24;;;;;;;5.78;5.28;;;16.70;79.70;;;;;;5053032;28;20043;-35
2021/05/11 13:25:12;;;;;;;8.43;5.47;;;16.50;80.40;;;;;;5053205;28;20048;-36
2021/05/11 13:35:35;;;;;;;8.80;7.18;;;16.90;79.50;;;;;;5053232;28;20017;-35
2021/05/11 13:38:02;;;;;;;7.20;6.38;;;17.20;78.00;;;;;;5053291;28;20587;-35
2021/05/11 13:40:28;;;;;;;7.47;6.60;;;17.20;77.70;;;;;;5053034;28;20052;-36
2021/05/11 13:42:54;;;;;;;9.15;7.32;;;17.30;79.00;;;;;;5052477;28;20025;-35
2021/05/11 13:45:20;;;;;;;6.90;6.25;;;17.30;77.20;;;;;;5052631;28;20036;-34
2021/05/11 13:47:58;;;;;;;8.85;6.22;;;17.20;77.70;;;;;;5051206;28;20025;-36
2021/05/11 13:50:34;;;;;;;13.68;6.90;;;16.90;77.30;;;;;;5052053;28;20053;-35
2021/05/11 13:53:00;;;;;;;9.75;6.82;;;16.90;79.50;;;;;;5053470;28;20060;-36
2021/05/11 13:55:35;;;;;;;8.93;6.60;;;16.80;79.70;;;;;;5056285;28;20060;-36
2021/05/11 14:03:29;;;;;;;8.40;7.13;;;16.80;79.40;;;;;;5055842;28;20040;-35
2021/05/11 14:05:55;;;;;;;8.88;7.07;;;17.10;78.80;;;;;;5056050;28;20033;-35
2021/05/11 14:08:20;;;;;;;7.60;6.43;;;17.00;77.50;;;;;;5055780;28;20040;-35
2021/05/11 14:10:46;;;;;;;8.35;7.15;;;17.00;78.00;;;;;;5055371;28;20083;-35
2021/05/11 14:13:11;;;;;;;10.90;7.50;;;16.90;77.70;;;;;;5055747;28;20025;-34
2021/05/11 14:15:37;;;;;;;6.93;6.22;;;16.90;78.20;;;;;;5055734;28;20389;-48
2021/05/11 14:18:03;;;;;;;13.30;7.25;;;16.80;78.40;;;;;;5055538;28;20075;-36
2021/05/11 14:20:30;;;;;;;8.23;7.05;;;16.70;79.70;;;;;;5055316;28;20465;-36
2021/05/11 14:22:56;;;;;;;9.75;7.07;;;17.00;78.10;;;;;;5055593;28;20430;-36
2021/05/11 14:25:25;;;;;;;10.52;7.30;;;17.00;77.90;;;;;;5055681;28;20078;-35
2021/05/11 14:27:50;;;;;;;7.60;6.55;;;17.10;78.30;;;;;;5055085;28;20116;-35
2021/05/11 14:30:17;;;;;;;9.50;7.13;;;16.80;78.70;;;;;;5055434;28;20108;-35
2021/05/11 14:32:42;;;;;;;8.88;7.25;;;16.60;79.90;;;;;;5055176;28;20025;-35
2021/05/11 14:35:09;;;;;;;7.97;7.00;;;16.50;81.60;;;;;;5055337;28;20124;-35
2021/05/11 14:37:35;;;;;;;7.95;7.03;;;16.80;78.80;;;;;;5053960;28;20051;-35
2021/05/11 14:40:00;;;;;;;10.43;7.28;;;16.80;78.90;;;;;;5055377;28;20481;-35
2021/05/11 14:42:27;;;;;;;8.40;7.07;;;16.70;80.00;;;;;;5055120;28;20028;-36
2021/05/11 14:44:54;;;;;;;8.57;7.60;;;16.40;80.60;;;;;;5055288;28;20064;-35
2021/05/11 14:47:20;;;;;;;10.75;7.47;;;16.60;80.70;;;;;;5054736;28;20074;-35
2021/05/11 14:49:45;;;;;;;8.68;7.60;;;16.80;80.30;;;;;;5054336;28;20157;-35
2021/05/11 14:52:13;;;;;;;8.60;7.80;;;17.10;77.70;;;;;;5055188;28;20021;-37
2021/05/11 14:54:40;;;;;;;8.20;7.50;;;17.00;76.90;;;;;;5054742;28;20160;-38
2021/05/11 14:57:06;;;;;;;9.95;8.13;;;17.00;77.30;;;;;;5054503;28;20025;-36
2021/05/11 14:59:31;;;;;;;9.68;8.20;;;17.10;77.00;;;;;;5054898;28;20037;-35
2021/05/11 15:01:57;;;;;;;8.20;7.40;;;16.80;77.40;;;;;;5054953;28;20079;-36
2021/05/11 15:04:22;;;;;;;8.65;6.78;;;16.80;79.10;;;;;;5054202;28;20047;-35
2021/05/11 15:06:48;;;;;;;14.02;8.57;;;16.70;78.40;;;;;;5053506;28;20032;-36
2021/05/11 15:09:14;;;;;;;8.85;7.03;;;16.60;79.30;;;;;;5053941;28;20040;-36
2021/05/11 15:11:40;;;;;;;8.88;7.35;;;16.70;79.10;;;;;;5053787;28;20055;-36
2021/05/11 15:14:05;;;;;;;9.57;8.40;;;16.60;79.40;;;;;;5053753;28;20322;-35
2021/05/11 15:16:37;;;;;;;8.23;7.35;;;16.70;80.00;;;;;;5053948;28;20021;-35
2021/05/11 15:19:04;;;;;;;8.63;7.78;;;16.50;80.10;;;;;;5054978;28;20465;-36
2021/05/11 15:21:30;;;;;;;9.57;8.15;;;16.50;79.20;;;;;;5054630;28;20033;-36
2021/05/11 15:23:55;;;;;;;7.82;7.03;;;16.50;79.60;;;;;;5054691;28;20021;-34
2021/05/11 15:26:22;;;;;;;10.05;8.10;;;16.50;79.40;;;;;;5054352;28;20159;-35
2021/05/11 15:28:48;;;;;;;11.20;7.95;;;16.40;80.10;;;;;;5054793;28;20036;-37
2021/05/11 15:31:14;;;;;;;9.50;8.10;;;16.30;80.40;;;;;;5054535;28;20025;-35
2021/05/11 15:33:40;;;;;;;9.80;8.77;;;16.30;81.10;;;;;;5052909;28;20048;-36
2021/05/11 15:36:06;;;;;;;12.95;8.43;;;16.40;80.30;;;;;;5054140;28;20095;-35
2021/05/11 15:38:32;;;;;;;17.58;11.02;;;16.30;80.60;;;;;;5054317;28;20049;-35
2021/05/11 15:40:58;;;;;;;8.50;7.60;;;16.30;81.20;;;;;;5054317;28;20029;-35
2021/05/11 15:43:25;;;;;;;10.13;8.13;;;16.20;80.80;;;;;;5052826;28;20033;-36
2021/05/11 15:45:51;;;;;;;6.68;5.97;;;16.10;81.70;;;;;;5054170;28;20033;-36
2021/05/11 15:48:17;;;;;;;8.95;6.30;;;16.00;80.40;;;;;;5054028;28;20078;-36
2021/05/11 15:50:45;;;;;;;11.88;7.40;;;15.90;80.90;;;;;;5053361;28;20443;-35
2021/05/11 15:53:18;;;;;;;9.52;6.82;;;16.00;81.00;;;;;;5054096;28;20021;-36
2021/05/11 15:55:47;;;;;;;10.32;9.02;;;15.80;82.00;;;;;;5053744;28;20480;-35
2021/05/11 15:58:13;;;;;;;11.35;10.10;;;15.30;85.10;;;;;;5053594;28;20013;-35
2021/05/11 16:00:41;;;;;;;11.95;10.02;;;15.00;87.40;;;;;;5053855;28;20473;-36
2021/05/11 16:03:07;;;;;;;12.27;10.38;;;14.90;88.10;;;;;;5053817;28;20025;-35
2021/05/11 16:05:36;;;;;;;15.48;13.10;;;14.90;88.40;;;;;;5053500;28;20025;-36
2021/05/11 16:08:06;;;;;;;16.88;14.82;;;14.80;88.60;;;;;;5053702;28;20496;-36
2021/05/11 16:10:33;;;;;;;17.35;14.55;;;14.90;89.10;;;;;;5053274;28;20025;-35
2021/05/11 16:12:59;;;;;;;22.08;17.00;;;14.80;89.70;;;;;;5053950;28;20025;-37
2021/05/11 16:15:25;;;;;;;21.38;16.17;;;14.90;89.10;;;;;;5053405;28;20128;-36
2021/05/11 16:17:51;;;;;;;18.20;15.65;;;14.70;89.70;;;;;;5053225;28;20029;-34
2021/05/11 16:20:17;;;;;;;20.27;16.15;;;14.50;90.30;;;;;;5053277;28;20025;-36
2021/05/11 16:22:43;;;;;;;24.40;17.77;;;14.40;91.30;;;;;;5053644;28;20082;-36
2021/05/11 16:25:11;;;;;;;23.58;15.98;;;14.40;91.30;;;;;;5053640;28;20025;-36
2021/05/11 16:27:38;;;;;;;25.70;18.67;;;14.60;91.10;;;;;;5053308;28;20100;-35
2021/05/11 16:30:06;;;;;;;28.70;17.98;;;14.50;90.40;;;;;;5053458;28;20071;-35
2021/05/11 16:32:32;;;;;;;27.23;17.83;;;14.30;90.90;;;;;;5053743;28;20024;-35
2021/05/11 16:34:58;;;;;;;24.75;16.30;;;14.40;90.40;;;;;;5053650;28;20393;-37
2021/05/11 16:37:25;;;;;;;27.95;17.08;;;14.40;90.20;;;;;;5053550;28;20030;-36
2021/05/11 16:39:50;;;;;;;25.00;15.43;;;14.50;90.20;;;;;;5051814;28;20036;-36
2021/05/11 16:42:16;;;;;;;20.23;13.95;;;14.50;89.70;;;;;;5053026;28;20408;-36
2021/05/11 16:44:42;;;;;;;17.85;13.07;;;14.50;89.50;;;;;;5053020;28;20017;-36
2021/05/11 16:47:07;;;;;;;17.38;13.15;;;14.50;89.20;;;;;;5053328;28;20025;-35
2021/05/11 16:49:34;;;;;;;23.08;15.65;;;14.40;89.10;;;;;;5052914;28;20037;-36
2021/05/11 16:52:00;;;;;;;17.23;13.32;;;14.50;89.50;;;;;;5053286;28;20060;-35
2021/05/11 16:54:26;;;;;;;13.88;11.43;;;14.60;89.40;;;;;;5053863;28;20021;-36
2021/05/11 16:56:51;;;;;;;15.63;10.80;;;14.60;88.90;;;;;;5051651;28;20152;-35
2021/05/11 16:59:18;;;;;;;15.50;12.57;;;14.60;88.80;;;;;;5052889;28;20024;-34
2021/05/11 17:01:44;;;;;;;16.00;12.07;;;14.60;89.10;;;;;;5052936;28;20029;-35
2021/05/11 17:04:10;;;;;;;15.27;12.57;;;14.70;89.10;;;;;;5053177;28;20059;-36